Time;durP1;ratioP1;P1;durP2;ratioP2;P2;SDS_P1;SDS_P2;PMS_P1;PMS_P2;Temp;Humidity;BMP_temperature;BMP_pressure;BME280_temperature;BME280_humidity;BME280_pressure;Samples;Min_cycle;Max_cycle;Signal;HPM_P1;HPM_P2
2023/11/16 00:01:37;;;;;;;13.07;4.00;;;8.50;99.90;;;;;;5053700;28;20494;-71
2023/11/16 00:04:04;;;;;;;14.48;4.60;;;8.50;99.90;;;;;;5053669;28;20033;-71
2023/11/16 00:06:29;;;;;;;16.13;4.22;;;8.50;99.90;;;;;;5054101;28;20032;-71
2023/11/16 00:08:55;;;;;;;16.48;4.20;;;8.50;99.90;;;;;;5053995;28;20482;-71
2023/11/16 00:11:21;;;;;;;15.15;4.95;;;8.50;99.90;;;;;;5053994;28;20118;-71
2023/11/16 00:13:46;;;;;;;19.98;4.53;;;8.60;99.90;;;;;;5054131;28;20095;-71
2023/11/16 00:16:12;;;;;;;17.73;4.60;;;8.50;99.90;;;;;;5053840;28;20509;-71
2023/11/16 00:18:40;;;;;;;20.50;4.72;;;8.50;99.90;;;;;;5053857;28;20083;-71
2023/11/16 00:21:06;;;;;;;19.10;4.80;;;8.60;99.90;;;;;;5053383;28;20025;-71
2023/11/16 00:23:32;;;;;;;14.98;4.15;;;8.60;99.90;;;;;;5053797;28;20025;-71
2023/11/16 00:25:59;;;;;;;15.32;4.82;;;8.50;99.90;;;;;;5053733;28;20122;-71
2023/11/16 00:28:26;;;;;;;14.82;4.50;;;8.60;99.90;;;;;;5053250;28;20079;-71
2023/11/16 00:30:52;;;;;;;16.40;4.95;;;8.60;99.90;;;;;;5053277;28;20033;-71
2023/11/16 00:33:18;;;;;;;16.77;4.60;;;8.60;99.90;;;;;;5053279;28;20029;-71
2023/11/16 00:35:45;;;;;;;14.38;4.68;;;8.60;99.90;;;;;;5053665;28;20044;-71
2023/11/16 00:38:13;;;;;;;19.50;4.65;;;8.60;99.90;;;;;;5053848;28;20387;-71
2023/11/16 00:40:38;;;;;;;16.10;3.78;;;8.60;99.90;;;;;;5053377;28;20031;-71
2023/11/16 00:43:05;;;;;;;14.93;4.07;;;8.60;99.90;;;;;;5053679;28;20108;-71
2023/11/16 00:45:31;;;;;;;14.80;3.88;;;8.70;99.90;;;;;;5053434;28;20131;-71
2023/11/16 00:47:57;;;;;;;13.13;4.07;;;8.70;99.90;;;;;;5053277;28;20025;-71
2023/11/16 00:50:22;;;;;;;13.48;3.67;;;8.60;99.90;;;;;;5053775;28;20036;-71
2023/11/16 00:52:48;;;;;;;17.45;4.20;;;8.60;99.90;;;;;;5053806;28;20033;-71
2023/11/16 00:55:15;;;;;;;22.30;4.88;;;8.70;99.90;;;;;;5053519;28;20028;-71
2023/11/16 00:57:47;;;;;;;15.13;3.75;;;8.70;99.90;;;;;;5053747;28;20021;-71
2023/11/16 01:00:15;;;;;;;18.40;4.05;;;8.70;99.90;;;;;;5053028;28;20551;-71
2023/11/16 01:02:41;;;;;;;19.48;3.92;;;8.70;99.90;;;;;;5053719;28;20485;-71
2023/11/16 01:05:09;;;;;;;11.73;3.50;;;8.70;99.90;;;;;;5053804;28;20532;-71
2023/11/16 01:07:36;;;;;;;16.48;3.42;;;8.70;99.90;;;;;;5053493;28;20025;-71
2023/11/16 01:10:03;;;;;;;14.35;3.65;;;8.70;99.90;;;;;;5053528;28;20029;-71
2023/11/16 01:12:30;;;;;;;15.95;4.15;;;8.70;99.90;;;;;;5053491;28;20390;-71
2023/11/16 01:14:59;;;;;;;15.77;4.22;;;8.70;99.90;;;;;;5053031;28;20029;-71
2023/11/16 01:17:31;;;;;;;16.65;3.95;;;8.70;99.90;;;;;;5053280;28;20148;-71
2023/11/16 01:20:00;;;;;;;16.80;4.20;;;8.70;99.90;;;;;;5053132;28;20033;-71
2023/11/16 01:22:27;;;;;;;19.02;3.58;;;8.70;99.90;;;;;;5053259;28;20052;-71
2023/11/16 01:24:52;;;;;;;11.90;3.17;;;8.70;99.90;;;;;;5053480;28;20029;-71
2023/11/16 01:27:25;;;;;;;16.27;3.60;;;8.70;99.90;;;;;;5053273;28;20036;-71
2023/11/16 01:29:51;;;;;;;19.00;4.68;;;8.70;99.90;;;;;;5053279;28;20482;-71
2023/11/16 01:32:17;;;;;;;15.85;3.55;;;8.70;99.90;;;;;;5053232;28;20044;-71
2023/11/16 01:34:45;;;;;;;13.90;3.80;;;8.70;99.90;;;;;;5053223;28;20501;-71
2023/11/16 01:37:11;;;;;;;23.58;3.45;;;8.70;99.90;;;;;;5053032;28;20475;-71
2023/11/16 01:39:40;;;;;;;16.00;3.63;;;8.70;99.90;;;;;;5052497;28;20048;-72
2023/11/16 01:42:09;;;;;;;11.18;3.95;;;8.70;99.90;;;;;;5052795;28;20025;-71
2023/11/16 01:44:35;;;;;;;13.98;3.38;;;8.80;99.90;;;;;;5052776;28;20040;-72
2023/11/16 01:47:02;;;;;;;13.60;4.15;;;8.70;99.90;;;;;;5052928;28;20029;-71
2023/11/16 01:49:29;;;;;;;17.60;4.40;;;8.80;99.90;;;;;;5052789;28;20029;-71
2023/11/16 01:51:57;;;;;;;9.45;3.38;;;8.80;99.90;;;;;;5052688;28;20386;-71
2023/11/16 01:54:24;;;;;;;18.25;3.80;;;8.80;99.90;;;;;;5052394;28;20124;-71
2023/11/16 01:56:51;;;;;;;13.60;4.45;;;8.80;99.90;;;;;;5052369;28;20120;-71
2023/11/16 01:59:19;;;;;;;13.18;3.70;;;8.80;99.90;;;;;;5052634;28;20367;-71
2023/11/16 02:01:46;;;;;;;15.75;3.58;;;8.80;99.90;;;;;;5052604;28;20485;-71
2023/11/16 02:04:14;;;;;;;17.85;3.97;;;8.80;99.90;;;;;;5052362;28;20028;-71
2023/11/16 02:06:40;;;;;;;17.67;3.85;;;8.80;99.90;;;;;;5052837;28;20470;-71
2023/11/16 02:09:06;;;;;;;15.68;4.10;;;8.80;99.90;;;;;;5056324;28;20089;-71
2023/11/16 02:11:32;;;;;;;24.95;4.57;;;8.80;99.90;;;;;;5056368;28;20057;-71
2023/11/16 02:13:58;;;;;;;13.65;3.88;;;8.80;99.90;;;;;;5056199;28;20083;-71
2023/11/16 02:16:24;;;;;;;17.42;4.40;;;8.80;99.90;;;;;;5056161;28;20025;-71
2023/11/16 02:18:50;;;;;;;22.98;4.28;;;8.80;99.90;;;;;;5056154;28;20025;-71
2023/11/16 02:21:15;;;;;;;18.85;3.75;;;8.80;99.90;;;;;;5055877;28;20056;-71
2023/11/16 02:23:42;;;;;;;14.25;3.70;;;8.80;99.90;;;;;;5055991;28;20025;-71
2023/11/16 02:26:07;;;;;;;21.00;4.43;;;8.80;99.90;;;;;;5055627;28;20023;-71
2023/11/16 02:28:34;;;;;;;16.08;4.55;;;8.80;99.90;;;;;;5055994;28;20021;-71
2023/11/16 02:31:01;;;;;;;19.45;4.50;;;8.70;99.90;;;;;;5055500;28;20406;-71
2023/11/16 02:33:27;;;;;;;13.20;4.07;;;8.80;99.90;;;;;;5055426;28;20039;-71
2023/11/16 02:35:54;;;;;;;13.65;4.00;;;8.80;99.90;;;;;;5055784;28;20033;-71
2023/11/16 02:38:20;;;;;;;15.65;4.25;;;8.80;99.90;;;;;;5055664;28;20048;-71
2023/11/16 02:40:51;;;;;;;14.70;4.43;;;8.80;99.90;;;;;;5055426;28;20029;-71
2023/11/16 02:43:18;;;;;;;10.45;3.60;;;8.80;99.90;;;;;;5055752;28;20033;-71
2023/11/16 02:45:43;;;;;;;15.52;3.80;;;8.80;99.90;;;;;;5055619;28;20102;-71
2023/11/16 02:48:09;;;;;;;14.30;4.72;;;8.80;99.90;;;;;;5055582;28;20470;-71
2023/11/16 02:50:35;;;;;;;20.27;4.20;;;8.80;99.90;;;;;;5055129;28;20553;-71
2023/11/16 02:53:00;;;;;;;13.40;3.97;;;8.70;99.90;;;;;;5055777;28;20032;-71
2023/11/16 02:55:26;;;;;;;15.43;4.68;;;8.80;99.90;;;;;;5055383;28;20057;-71
2023/11/16 02:57:57;;;;;;;17.77;4.40;;;8.70;99.90;;;;;;5055386;28;20504;-71
2023/11/16 03:00:24;;;;;;;18.85;4.63;;;8.70;99.90;;;;;;5054674;28;20132;-72
2023/11/16 03:02:51;;;;;;;13.85;3.97;;;8.70;99.90;;;;;;5054947;28;20033;-71
2023/11/16 03:05:21;;;;;;;19.25;4.63;;;8.70;99.90;;;;;;5054891;28;20171;-71
2023/11/16 03:07:48;;;;;;;14.02;4.00;;;8.80;99.90;;;;;;5055219;28;20386;-72
2023/11/16 03:10:14;;;;;;;18.05;3.78;;;8.70;99.90;;;;;;5055209;28;20036;-72
2023/11/16 03:12:40;;;;;;;19.08;5.35;;;8.80;99.90;;;;;;5055151;28;20398;-71
2023/11/16 03:15:06;;;;;;;19.02;4.57;;;8.70;99.90;;;;;;5055116;28;20096;-69
2023/11/16 03:17:34;;;;;;;18.20;4.38;;;8.60;99.90;;;;;;5055111;28;20110;-70
2023/11/16 03:20:00;;;;;;;22.45;4.68;;;8.50;99.90;;;;;;5054459;28;20033;-71
2023/11/16 03:22:28;;;;;;;12.18;4.20;;;8.40;99.90;;;;;;5054827;28;20029;-70
2023/11/16 03:24:54;;;;;;;20.90;5.10;;;8.30;99.90;;;;;;5054802;28;20086;-71
2023/11/16 03:27:21;;;;;;;16.67;4.82;;;8.30;99.90;;;;;;5054777;28;20025;-70
2023/11/16 03:29:47;;;;;;;15.05;4.65;;;8.30;99.90;;;;;;5054786;28;20118;-71
2023/11/16 03:32:13;;;;;;;18.70;5.75;;;8.20;99.90;;;;;;5054687;28;20079;-71
2023/11/16 03:34:39;;;;;;;21.77;5.10;;;8.20;99.90;;;;;;5054712;28;20383;-72
2023/11/16 03:37:05;;;;;;;17.13;4.70;;;8.20;99.90;;;;;;5054733;28;20136;-71
2023/11/16 03:39:31;;;;;;;14.77;4.90;;;8.20;99.90;;;;;;5054182;28;20496;-71
2023/11/16 03:41:58;;;;;;;16.63;5.25;;;8.10;99.90;;;;;;5054486;28;20029;-71
2023/11/16 03:44:26;;;;;;;21.38;6.32;;;8.10;99.90;;;;;;5054037;28;20021;-71
2023/11/16 03:46:53;;;;;;;25.55;6.15;;;8.10;99.90;;;;;;5054511;28;20043;-72
2023/11/16 03:49:19;;;;;;;18.92;5.53;;;8.00;99.90;;;;;;5054363;28;20031;-72
2023/11/16 03:51:45;;;;;;;21.00;6.45;;;8.00;99.90;;;;;;5054076;28;20029;-71
2023/11/16 03:54:10;;;;;;;22.75;6.35;;;8.00;99.90;;;;;;5054372;28;20033;-72
2023/11/16 03:56:36;;;;;;;19.05;7.38;;;8.00;99.90;;;;;;5054300;28;20114;-71
2023/11/16 03:59:02;;;;;;;22.27;6.88;;;7.90;99.90;;;;;;5054428;28;20033;-71
2023/11/16 04:01:35;;;;;;;25.58;6.82;;;7.90;99.90;;;;;;5053695;28;20040;-71
2023/11/16 04:04:01;;;;;;;30.48;7.82;;;7.90;99.90;;;;;;5053729;28;20025;-72
2023/11/16 04:06:26;;;;;;;23.70;7.47;;;7.90;99.90;;;;;;5054003;28;20446;-70
2023/11/16 04:08:53;;;;;;;27.08;8.70;;;7.90;99.90;;;;;;5054001;28;20032;-70
2023/11/16 04:11:19;;;;;;;29.35;7.72;;;7.90;99.90;;;;;;5054019;28;20371;-71
2023/11/16 04:13:46;;;;;;;26.27;7.68;;;7.80;99.90;;;;;;5053919;28;20020;-72
2023/11/16 04:16:23;;;;;;;35.67;8.70;;;7.80;99.90;;;;;;5053896;28;20025;-72
2023/11/16 04:18:51;;;;;;;26.70;8.35;;;7.80;99.90;;;;;;5053845;28;20486;-72
2023/11/16 04:21:18;;;;;;;22.48;8.48;;;7.70;99.90;;;;;;5053376;28;20055;-71
2023/11/16 04:23:47;;;;;;;27.30;9.15;;;7.80;99.90;;;;;;5053699;28;20021;-72
2023/11/16 04:26:13;;;;;;;27.95;9.18;;;7.70;99.90;;;;;;5053757;28;20044;-72
2023/11/16 04:28:42;;;;;;;24.80;8.98;;;7.70;99.90;;;;;;5053856;28;20025;-72
2023/11/16 04:31:09;;;;;;;24.58;8.82;;;7.60;99.90;;;;;;5053481;28;20029;-72
2023/11/16 04:33:37;;;;;;;26.08;8.30;;;7.60;99.90;;;;;;5053645;28;20079;-72
2023/11/16 04:36:05;;;;;;;22.85;8.95;;;7.60;99.90;;;;;;5053471;28;20028;-72
2023/11/16 04:38:31;;;;;;;31.80;9.23;;;7.60;99.90;;;;;;5053575;28;20040;-71
2023/11/16 04:40:57;;;;;;;27.63;9.32;;;7.60;99.90;;;;;;5053225;28;20032;-71
2023/11/16 04:43:22;;;;;;;26.83;9.80;;;7.60;99.90;;;;;;5053439;28;20386;-72
2023/11/16 04:45:52;;;;;;;28.20;11.00;;;7.60;99.90;;;;;;5053489;28;20029;-71
2023/11/16 04:48:19;;;;;;;26.90;9.65;;;7.60;99.90;;;;;;5053399;28;20028;-72
2023/11/16 04:50:45;;;;;;;31.45;10.27;;;7.60;99.90;;;;;;5053427;28;20025;-72
2023/11/16 04:53:10;;;;;;;29.23;10.75;;;7.60;99.90;;;;;;5053441;28;20390;-72
2023/11/16 04:55:36;;;;;;;29.23;10.73;;;7.60;99.90;;;;;;5053401;28;20478;-72
2023/11/16 04:58:02;;;;;;;31.90;10.70;;;7.60;99.90;;;;;;5053270;28;20029;-71
2023/11/16 05:00:28;;;;;;;25.30;9.65;;;7.60;99.90;;;;;;5052851;28;20044;-71
2023/11/16 05:02:54;;;;;;;19.92;10.20;;;7.60;99.90;;;;;;5053214;28;20086;-72
2023/11/16 05:05:19;;;;;;;30.77;10.50;;;7.70;99.90;;;;;;5053187;28;20036;-72
2023/11/16 05:07:45;;;;;;;27.67;10.07;;;7.70;99.90;;;;;;5053152;28;20036;-70
2023/11/16 05:10:11;;;;;;;30.17;9.90;;;7.70;99.90;;;;;;5053364;28;20563;-70
2023/11/16 05:12:39;;;;;;;27.65;10.32;;;7.70;99.90;;;;;;5052869;28;20025;-72
2023/11/16 05:15:06;;;;;;;24.30;10.00;;;7.70;99.90;;;;;;5053276;28;20060;-72
2023/11/16 05:17:33;;;;;;;27.20;10.00;;;7.70;99.90;;;;;;5052730;28;20033;-72
2023/11/16 05:19:58;;;;;;;23.80;9.68;;;7.70;99.90;;;;;;5052995;28;20540;-72
2023/11/16 05:22:24;;;;;;;24.58;9.43;;;7.70;99.90;;;;;;5053054;28;20021;-69
2023/11/16 05:24:50;;;;;;;30.55;8.65;;;7.70;99.90;;;;;;5053074;28;20025;-72
2023/11/16 05:27:15;;;;;;;22.35;8.85;;;7.70;99.90;;;;;;5053100;28;20110;-72
2023/11/16 05:29:41;;;;;;;26.00;8.55;;;7.70;99.90;;;;;;5053032;28;20029;-70
2023/11/16 05:32:06;;;;;;;28.33;9.20;;;7.70;99.90;;;;;;5052653;28;20560;-71
2023/11/16 05:34:32;;;;;;;24.25;9.13;;;7.70;99.90;;;;;;5052860;28;20029;-70
2023/11/16 05:36:58;;;;;;;28.30;10.43;;;7.70;99.90;;;;;;5052527;28;20483;-70
2023/11/16 05:39:23;;;;;;;30.35;11.63;;;7.70;99.90;;;;;;5052380;28;20021;-71
2023/11/16 05:41:49;;;;;;;26.55;11.77;;;7.70;99.90;;;;;;5053295;28;20029;-71
2023/11/16 05:44:17;;;;;;;35.75;13.05;;;7.70;99.90;;;;;;5056864;28;20013;-71
2023/11/16 05:46:44;;;;;;;30.08;12.85;;;7.70;99.90;;;;;;5056801;28;20410;-71
2023/11/16 05:49:09;;;;;;;28.10;13.02;;;7.70;99.90;;;;;;5056702;28;20017;-71
2023/11/16 05:51:37;;;;;;;35.05;13.02;;;7.70;99.90;;;;;;5056727;28;20032;-71
2023/11/16 05:54:08;;;;;;;31.08;13.57;;;7.70;99.90;;;;;;5056627;28;20047;-71
2023/11/16 05:56:40;;;;;;;35.08;14.15;;;7.60;99.90;;;;;;5056357;28;20371;-71
2023/11/16 05:59:08;;;;;;;32.78;13.98;;;7.70;99.90;;;;;;5056539;28;20051;-71
2023/11/16 06:01:35;;;;;;;32.38;14.30;;;7.70;99.90;;;;;;5055911;28;20049;-71
2023/11/16 06:04:01;;;;;;;32.13;13.55;;;7.70;99.90;;;;;;5055928;28;20056;-71
2023/11/16 06:06:27;;;;;;;32.78;14.27;;;7.70;99.90;;;;;;5055919;28;20028;-71
2023/11/16 06:08:53;;;;;;;31.15;13.82;;;7.70;99.90;;;;;;5056281;28;20483;-71
2023/11/16 06:11:18;;;;;;;42.75;15.15;;;7.60;99.90;;;;;;5056341;28;20037;-71
2023/11/16 06:13:44;;;;;;;37.17;15.63;;;7.60;99.90;;;;;;5056226;28;20521;-71
2023/11/16 06:16:12;;;;;;;30.88;15.85;;;7.60;99.90;;;;;;5055861;28;20131;-71
2023/11/16 06:18:38;;;;;;;38.63;17.48;;;7.60;99.90;;;;;;5056280;28;20550;-71
2023/11/16 06:21:04;;;;;;;38.17;16.27;;;7.60;99.90;;;;;;5055786;28;20125;-71
2023/11/16 06:23:29;;;;;;;37.53;17.10;;;7.60;99.90;;;;;;5056045;28;20025;-71
2023/11/16 06:25:55;;;;;;;39.42;18.65;;;7.60;99.90;;;;;;5055904;28;20025;-71
2023/11/16 06:28:21;;;;;;;37.30;18.10;;;7.50;99.90;;;;;;5055925;28;20025;-71
2023/11/16 06:30:46;;;;;;;35.50;18.92;;;7.50;99.90;;;;;;5055583;28;20029;-71
2023/11/16 06:33:12;;;;;;;36.50;17.55;;;7.50;99.90;;;;;;5055861;28;20037;-71
2023/11/16 06:35:37;;;;;;;37.25;17.73;;;7.40;99.90;;;;;;5055520;28;20179;-71
2023/11/16 06:38:03;;;;;;;35.28;18.20;;;7.30;99.90;;;;;;5055749;28;20568;-71
2023/11/16 06:40:29;;;;;;;37.78;17.42;;;7.30;99.90;;;;;;5055529;28;20052;-71
2023/11/16 06:42:55;;;;;;;48.20;20.58;;;7.30;99.90;;;;;;5055663;28;20056;-71
2023/11/16 06:45:21;;;;;;;47.53;21.85;;;7.20;99.90;;;;;;5055638;28;20516;-71
2023/11/16 06:47:48;;;;;;;70.07;41.95;;;7.20;99.90;;;;;;5055692;28;20024;-71
2023/11/16 06:50:14;;;;;;;67.03;34.97;;;7.20;99.90;;;;;;5055568;28;20115;-71
2023/11/16 06:52:41;;;;;;;107.55;53.97;;;7.20;99.90;;;;;;5054864;28;20458;-71
2023/11/16 06:55:10;;;;;;;83.80;38.72;;;7.20;99.90;;;;;;5055557;28;20540;-71
2023/11/16 06:57:36;;;;;;;139.15;64.88;;;7.20;99.90;;;;;;5055518;28;20025;-72
2023/11/16 07:00:08;;;;;;;127.13;67.47;;;7.20;99.90;;;;;;5055032;28;20051;-72
2023/11/16 07:02:34;;;;;;;77.10;35.63;;;7.20;99.90;;;;;;5054834;28;20021;-72
2023/11/16 07:05:00;;;;;;;59.55;30.80;;;7.20;99.90;;;;;;5055132;28;20017;-70
2023/11/16 07:07:26;;;;;;;131.70;66.15;;;7.20;99.90;;;;;;5055185;28;20074;-71
2023/11/16 07:09:51;;;;;;;82.18;38.05;;;7.30;99.90;;;;;;5055162;28;20036;-70
2023/11/16 07:12:20;;;;;;;100.32;49.13;;;7.20;99.90;;;;;;5055213;28;20033;-70
2023/11/16 07:14:48;;;;;;;79.43;40.78;;;7.30;99.90;;;;;;5055045;28;20387;-70
2023/11/16 07:17:14;;;;;;;42.60;22.13;;;7.30;99.90;;;;;;5055052;28;20055;-70
2023/11/16 07:19:40;;;;;;;59.22;31.50;;;7.40;99.90;;;;;;5054621;28;20120;-71
2023/11/16 07:22:08;;;;;;;56.97;33.22;;;7.30;99.90;;;;;;5054935;28;20068;-70
2023/11/16 07:24:33;;;;;;;50.33;25.35;;;7.40;99.90;;;;;;5054921;28;20096;-71
2023/11/16 07:27:01;;;;;;;42.08;24.55;;;7.40;99.90;;;;;;5054796;28;20021;-71
2023/11/16 07:29:27;;;;;;;41.00;21.52;;;7.50;99.90;;;;;;5054648;28;20115;-71
2023/11/16 07:31:53;;;;;;;39.60;19.85;;;7.40;99.90;;;;;;5054927;28;20068;-71
2023/11/16 07:34:18;;;;;;;36.70;16.30;;;7.40;99.90;;;;;;5054406;28;20116;-79
2023/11/16 07:36:44;;;;;;;34.53;13.75;;;7.50;99.90;;;;;;5054800;28;20108;-79
2023/11/16 07:39:12;;;;;;;30.48;14.98;;;7.50;99.90;;;;;;5054773;28;20029;-79
2023/11/16 07:41:38;;;;;;;35.83;13.07;;;7.60;99.90;;;;;;5054614;28;20517;-79
2023/11/16 07:44:05;;;;;;;32.90;13.63;;;7.80;99.90;;;;;;5054210;28;20033;-79
2023/11/16 07:46:31;;;;;;;32.17;11.38;;;8.00;99.90;;;;;;5054784;28;20033;-79
2023/11/16 07:48:57;;;;;;;31.65;11.25;;;8.00;99.90;;;;;;5054636;28;20031;-79
2023/11/16 07:51:23;;;;;;;29.98;11.88;;;8.10;99.90;;;;;;5054514;28;20043;-79
2023/11/16 07:53:53;;;;;;;30.45;11.95;;;8.10;99.90;;;;;;5054569;28;20021;-79
2023/11/16 07:56:19;;;;;;;26.40;10.93;;;8.20;99.90;;;;;;5054441;28;20433;-79
2023/11/16 07:58:52;;;;;;;25.05;13.98;;;8.30;99.90;;;;;;5054434;28;20394;-78
2023/11/16 08:01:22;;;;;;;38.83;12.90;;;8.60;99.90;;;;;;5053959;28;20087;-78
2023/11/16 08:03:55;;;;;;;26.33;11.60;;;9.30;99.90;;;;;;5054348;28;20390;-78
2023/11/16 08:06:22;;;;;;;;;;;9.80;99.90;;;;;;5053927;28;20026;-78
2023/11/16 08:08:49;;;;;;;52.30;27.02;;;9.90;99.90;;;;;;5054192;28;19912;-78
2023/11/16 08:11:16;;;;;;;107.15;62.35;;;9.90;99.90;;;;;;5053728;28;20036;-78
2023/11/16 08:13:45;;;;;;;37.22;19.67;;;10.00;99.90;;;;;;5053799;28;20024;-77
2023/11/16 08:16:15;;;;;;;30.70;13.45;;;10.00;99.90;;;;;;5053518;28;20060;-76
2023/11/16 08:18:42;;;;;;;25.20;11.73;;;10.00;99.90;;;;;;5053972;28;20041;-77
2023/11/16 08:21:09;;;;;;;27.58;12.00;;;10.00;99.90;;;;;;5053695;28;20545;-78
2023/11/16 08:23:39;;;;;;;22.63;9.70;;;10.90;99.90;;;;;;5053779;28;20478;-77
2023/11/16 08:26:06;;;;;;;19.65;10.57;;;11.50;99.30;;;;;;5053789;28;20029;-77
2023/11/16 08:28:34;;;;;;;21.27;10.02;;;11.90;18.30;;;;;;5053994;28;20021;-76
2023/11/16 08:31:00;;;;;;;19.25;9.55;;;11.50;16.30;;;;;;5053788;28;20036;-77
2023/11/16 08:33:25;;;;;;;30.25;11.10;;;11.10;40.40;;;;;;5053613;28;20029;-76
2023/11/16 08:35:53;;;;;;;25.02;10.73;;;10.50;93.60;;;;;;5053763;28;20371;-76
2023/11/16 08:38:19;;;;;;;24.38;11.00;;;10.10;99.90;;;;;;5053237;28;20466;-78
2023/11/16 08:40:45;;;;;;;30.13;12.98;;;9.90;99.90;;;;;;5053410;28;20501;-78
2023/11/16 08:43:11;;;;;;;25.98;11.50;;;10.00;99.90;;;;;;5053403;28;20106;-78
2023/11/16 08:45:39;;;;;;;25.60;11.90;;;10.10;99.90;;;;;;5053767;28;20123;-78
2023/11/16 08:48:07;;;;;;;24.40;11.80;;;10.00;99.90;;;;;;5053449;28;20040;-78
2023/11/16 08:50:33;;;;;;;24.90;11.38;;;10.00;99.90;;;;;;5053541;28;20036;-78
2023/11/16 08:53:00;;;;;;;27.35;12.15;;;9.70;99.90;;;;;;5053489;28;20112;-79
2023/11/16 08:55:26;;;;;;;28.75;12.55;;;9.60;99.90;;;;;;5052961;28;20027;-78
2023/11/16 08:57:53;;;;;;;28.77;11.68;;;9.60;99.90;;;;;;5053363;28;20128;-79
2023/11/16 09:00:35;;;;;;;29.02;12.23;;;9.50;99.90;;;;;;5052502;28;20047;-78
2023/11/16 09:03:03;;;;;;;33.92;13.85;;;9.50;99.90;;;;;;5053539;28;20029;-77
2023/11/16 09:05:31;;;;;;;27.98;14.00;;;9.40;99.90;;;;;;5053346;28;20032;-77
2023/11/16 09:07:59;;;;;;;29.67;13.75;;;9.30;99.90;;;;;;5053366;28;20053;-79
2023/11/16 09:10:24;;;;;;;34.03;14.40;;;9.10;99.90;;;;;;5053361;28;20577;-79
2023/11/16 09:12:53;;;;;;;29.30;14.60;;;9.10;99.90;;;;;;5053354;28;20052;-79
2023/11/16 09:15:20;;;;;;;35.30;16.08;;;8.90;99.90;;;;;;5053287;28;20037;-79
2023/11/16 09:17:46;;;;;;;43.05;19.02;;;8.90;99.90;;;;;;5056695;28;20397;-79
2023/11/16 09:20:13;;;;;;;37.40;17.38;;;8.80;99.90;;;;;;5056868;28;20460;-78
2023/11/16 09:22:41;;;;;;;33.28;18.02;;;8.90;99.90;;;;;;5057620;28;20475;-79
2023/11/16 09:25:07;;;;;;;41.85;19.75;;;8.90;99.90;;;;;;5057018;28;20052;-79
2023/11/16 09:27:35;;;;;;;42.35;22.15;;;8.90;99.90;;;;;;5057069;28;20486;-79
2023/11/16 09:30:04;;;;;;;43.78;23.52;;;9.00;99.90;;;;;;5057316;28;20064;-79
2023/11/16 09:32:31;;;;;;;40.88;21.80;;;9.10;99.90;;;;;;5057084;28;20047;-77
2023/11/16 09:34:58;;;;;;;40.45;22.05;;;9.10;99.90;;;;;;5057010;28;20033;-80
2023/11/16 09:37:27;;;;;;;36.38;20.80;;;9.30;99.90;;;;;;5056640;28;20025;-78
2023/11/16 09:39:54;;;;;;;43.15;22.17;;;9.30;99.90;;;;;;5056910;28;20029;-78
2023/11/16 09:42:26;;;;;;;40.75;25.08;;;9.30;99.90;;;;;;5056894;28;20112;-80
2023/11/16 09:44:55;;;;;;;48.20;27.05;;;9.30;99.90;;;;;;5056845;28;20527;-79
2023/11/16 09:47:25;;;;;;;39.97;26.45;;;9.10;99.90;;;;;;5056753;28;20033;-79
2023/11/16 09:49:55;;;;;;;48.05;26.63;;;9.10;99.90;;;;;;5056833;28;20521;-80
2023/11/16 09:52:25;;;;;;;45.00;22.80;;;9.10;99.90;;;;;;5056814;28;20159;-80
2023/11/16 09:54:55;;;;;;;40.92;23.35;;;9.20;99.90;;;;;;5056726;28;20573;-80
2023/11/16 09:57:22;;;;;;;37.83;23.83;;;9.20;99.90;;;;;;5056594;28;20021;-79
2023/11/16 09:59:52;;;;;;;49.50;25.08;;;9.10;99.90;;;;;;5056194;28;20045;-79
2023/11/16 10:02:23;;;;;;;43.63;24.80;;;9.20;99.90;;;;;;5055983;28;20021;-79
2023/11/16 10:04:50;;;;;;;44.03;24.63;;;9.20;99.90;;;;;;5056631;28;20103;-79
2023/11/16 10:07:20;;;;;;;43.20;23.08;;;9.30;99.90;;;;;;5056486;28;20071;-80
2023/11/16 10:09:46;;;;;;;39.30;22.90;;;9.40;99.90;;;;;;5056328;28;20021;-80
2023/11/16 10:12:13;;;;;;;36.13;21.85;;;9.40;99.90;;;;;;5056547;28;20039;-80
2023/11/16 10:14:40;;;;;;;36.65;21.38;;;9.30;99.90;;;;;;5056123;28;20024;-80
2023/11/16 10:17:06;;;;;;;43.30;21.40;;;9.20;99.90;;;;;;5056363;28;20539;-79
2023/11/16 10:19:31;;;;;;;50.50;22.65;;;9.20;99.90;;;;;;5056235;28;20029;-79
2023/11/16 10:21:58;;;;;;;41.22;21.70;;;9.10;99.90;;;;;;5056285;28;20124;-79
2023/11/16 10:24:25;;;;;;;37.00;20.98;;;9.10;99.90;;;;;;5056209;28;20036;-79
2023/11/16 10:26:54;;;;;;;44.08;24.02;;;9.10;99.90;;;;;;5056179;28;20382;-79
2023/11/16 10:29:21;;;;;;;32.17;20.95;;;9.10;99.90;;;;;;5055070;28;20025;-80
2023/11/16 10:31:47;;;;;;;32.50;19.88;;;9.10;99.90;;;;;;5056059;28;20032;-79
2023/11/16 10:34:15;;;;;;;39.72;21.17;;;9.20;99.90;;;;;;5056419;28;20029;-79
2023/11/16 10:36:43;;;;;;;35.22;20.23;;;9.20;99.90;;;;;;5055557;28;20032;-79
2023/11/16 10:39:11;;;;;;;33.85;19.00;;;9.30;99.90;;;;;;5056156;28;20112;-80
2023/11/16 10:41:39;;;;;;;33.40;20.27;;;9.40;99.90;;;;;;5055347;28;20033;-79
2023/11/16 10:44:06;;;;;;;37.47;20.73;;;9.40;99.90;;;;;;5055589;28;20095;-79
2023/11/16 10:46:33;;;;;;;41.83;21.15;;;9.30;99.90;;;;;;5055648;28;20115;-79
2023/11/16 10:48:58;;;;;;;37.35;21.30;;;9.20;99.90;;;;;;5055638;28;20067;-79
2023/11/16 10:51:25;;;;;;;35.08;20.23;;;9.30;99.90;;;;;;5055745;28;20043;-79
2023/11/16 10:53:54;;;;;;;33.95;19.45;;;9.30;99.90;;;;;;5055123;28;20116;-79
2023/11/16 10:56:19;;;;;;;42.50;21.02;;;9.50;99.90;;;;;;5055500;28;20484;-79
2023/11/16 10:58:47;;;;;;;39.47;21.40;;;9.50;99.90;;;;;;5055395;28;20060;-80
2023/11/16 11:01:17;;;;;;;31.88;21.08;;;9.50;99.90;;;;;;5055568;28;20049;-79
2023/11/16 11:03:45;;;;;;;38.75;20.35;;;9.50;99.90;;;;;;5055460;28;20033;-80
2023/11/16 11:06:19;;;;;;;33.00;20.70;;;9.60;99.90;;;;;;5055423;28;20021;-79
2023/11/16 11:08:47;;;;;;;35.03;21.95;;;9.70;99.90;;;;;;5055412;28;20078;-79
2023/11/16 11:11:13;;;;;;;38.75;21.90;;;9.80;99.90;;;;;;5055341;28;20505;-81
2023/11/16 11:13:41;;;;;;;36.28;21.00;;;9.60;99.90;;;;;;5054783;28;20163;-79
2023/11/16 11:16:08;;;;;;;33.85;20.92;;;9.50;99.90;;;;;;5055100;28;20040;-78
2023/11/16 11:18:46;;;;;;;43.15;22.00;;;9.40;99.90;;;;;;5055090;28;20595;-80
2023/11/16 11:21:14;;;;;;;39.03;21.92;;;9.20;99.90;;;;;;5055059;28;20029;-80
2023/11/16 11:23:41;;;;;;;33.65;22.23;;;9.30;99.90;;;;;;5054663;28;20112;-80
2023/11/16 11:26:07;;;;;;;33.13;21.85;;;9.30;99.90;;;;;;5054958;28;20021;-78
2023/11/16 11:28:35;;;;;;;41.83;21.65;;;9.10;99.90;;;;;;5054861;28;20124;-78
2023/11/16 11:31:04;;;;;;;43.58;23.33;;;9.00;99.90;;;;;;5054803;28;20117;-81
2023/11/16 11:33:39;;;;;;;36.83;22.08;;;9.00;99.90;;;;;;5054959;28;20124;-81
2023/11/16 11:36:09;;;;;;;33.78;21.17;;;9.10;99.90;;;;;;5054627;28;20394;-79
2023/11/16 11:38:38;;;;;;;36.17;22.50;;;9.20;99.90;;;;;;5054556;28;20057;-79
2023/11/16 11:41:07;;;;;;;44.15;21.00;;;9.20;99.90;;;;;;5053288;28;20537;-79
2023/11/16 11:43:34;;;;;;;36.92;21.27;;;9.20;99.90;;;;;;5054495;28;20025;-79
2023/11/16 11:46:00;;;;;;;37.22;21.58;;;9.20;99.90;;;;;;5054602;28;20041;-79
2023/11/16 11:48:26;;;;;;;34.22;21.67;;;9.30;99.90;;;;;;5054214;28;20098;-80
2023/11/16 11:50:56;;;;;;;35.28;21.60;;;9.20;99.90;;;;;;5054501;28;20029;-80
2023/11/16 11:53:27;;;;;;;36.72;21.98;;;9.20;99.90;;;;;;5054360;28;20060;-79
2023/11/16 11:55:54;;;;;;;31.05;20.58;;;9.30;99.90;;;;;;5054526;28;20474;-79
2023/11/16 11:58:21;;;;;;;35.60;21.38;;;9.20;99.90;;;;;;5054523;28;20060;-79
2023/11/16 12:00:49;;;;;;;34.00;22.15;;;9.20;99.90;;;;;;5054237;28;20179;-79
2023/11/16 12:03:16;;;;;;;36.35;23.33;;;9.20;99.90;;;;;;5054504;28;20040;-78
2023/11/16 12:05:42;;;;;;;35.40;22.65;;;8.90;99.90;;;;;;5054537;28;20389;-79
2023/11/16 12:08:10;;;;;;;41.75;24.17;;;8.90;99.90;;;;;;5054376;28;20052;-80
2023/11/16 12:10:37;;;;;;;40.42;25.35;;;8.90;99.90;;;;;;5054307;28;20033;-79
2023/11/16 12:13:05;;;;;;;45.15;25.10;;;8.80;99.90;;;;;;5054428;28;20037;-79
2023/11/16 12:15:30;;;;;;;43.58;26.73;;;8.80;99.90;;;;;;5053719;28;20031;-79
2023/11/16 12:18:00;;;;;;;44.03;25.40;;;8.80;99.90;;;;;;5054091;28;20494;-79
2023/11/16 12:20:28;;;;;;;42.88;25.13;;;8.90;99.90;;;;;;5053881;28;20044;-79
2023/11/16 12:22:54;;;;;;;42.85;25.20;;;8.90;99.90;;;;;;5053977;28;20040;-80
2023/11/16 12:25:21;;;;;;;45.20;23.98;;;9.00;99.90;;;;;;5053962;28;20025;-80
2023/11/16 12:27:47;;;;;;;40.60;25.13;;;9.00;99.90;;;;;;5054062;28;20059;-79
2023/11/16 12:30:18;;;;;;;35.40;22.75;;;9.00;99.90;;;;;;5053453;28;20025;-79
2023/11/16 12:32:44;;;;;;;32.35;22.73;;;9.00;99.90;;;;;;5053729;28;20029;-79
2023/11/16 12:35:12;;;;;;;36.10;22.50;;;9.00;99.90;;;;;;5053920;28;20041;-79
2023/11/16 12:37:38;;;;;;;35.58;22.33;;;9.00;99.90;;;;;;5061873;28;20029;-77
2023/11/16 12:40:16;;;;;;;36.55;21.40;;;9.00;99.90;;;;;;5061695;28;20032;-77